Terminal Aerodrome Forecast
Issued by NWS

Home | Current Version | Previous Version | Text Only | Print | Product List | Glossary On
Versions: 1 2 3 4 5 6 7 8 9 10 11 12 13 14 15 16 17 18 19 20 21 22 23 24 25 26 27 28 29 30
000
FTUS45 KSLC 260528
TAFEVW
TAF
KEVW 260528Z 2606/2706 09008KT P6SM SCT070 BKN150
     FM261200 07008KT P6SM -SHRA SCT040 BKN080
     FM261800 27018G28KT P6SM VCSH SCT060 BKN100
     FM270300 28006KT P6SM SCT060 SCT120=

USA.gov is the U.S. government's official web portal to all federal, state and local government web resources and services.